Ana Sayfa
METAR-TAF:

METAR-TAF

Havaalanları :

Kuveyt, Kuveyt

Enlem: 29-13N, Boylam: 047-59E, yükseklik: 55 m

Güncel hava durumu gözlemi

Rapor saat 08:00 UTC de 18 dakika önce yapıldı.
Rüzgar kuzeybatıdan 10 kt
Sıcaklık 27°C
Nem 26%
Basınç 1014 hPa
Görüş mesafesi 10 km veya daha fazla
1500 m altında bulut yok ve kümülonimbus yok

METAR: OKBK 300800Z 31010KT CAVOK 27/06 Q1014 NOSIG

Saat: 11:18 (08:18 UTC)

Tahmin

Rapor saat 04:45 UTC de 3 saat ve 33 dakika önce yapıldı.
Ayın 30'si saat 06 UTC'den ayın 31'si saat 12 UTC'ye kadar geçerli Tahmin
Rüzgar kuzeydan 8 kt ve 18 kt'a kadar ani rüzgarlar
Görüş mesafesi: 6000 m
Geçici
ayın 30'si saat 06 UTC'den ayın 30'si saat 09 UTC'ye kadar
Rüzgar değişken yönden 3 kt

TAF: OKBK 300445Z 3006/3112 36008G18KT 6000 NSC TEMPO 3006/3009 VRB03KT

4.000'den fazla havaalanı için hava durumu gözlemleri ve tahminleri (METAR ve TAF raporları).

Kullanılabilir istasyonlar harita üzerinde sarı ve kırmızı noktalarla gösterilir.

İstasyonun adını görmek için fareyi noktanın üzerinde gezdirin.

Sonrasında hava gözlem ve tahminlerini görmek için tıklayın.

Haritayı değiştirmek için: yaklaştırmak için siyah artı işaretli yeşil düğmeye ve uzaklaştırmak için de eksi işaretli düğmeye hızla tıklayın; bitişik haritalar için yeşil okları kullanın.


METAR-TAF: